createdAt,value
2019-05-30T00:01:06.440Z,7.99
2019-05-30T00:03:36.536Z,7.91
2019-05-30T00:06:06.611Z,7.87
2019-05-30T00:08:36.691Z,7.96
2019-05-30T00:11:06.780Z,7.91
2019-05-30T00:13:36.862Z,7.88
2019-05-30T00:16:06.944Z,7.90
2019-05-30T00:18:37.009Z,7.83
2019-05-30T00:21:07.101Z,7.79
2019-05-30T00:23:37.179Z,7.76
2019-05-30T00:26:07.555Z,7.71
2019-05-30T00:28:37.727Z,7.67
2019-05-30T00:31:07.832Z,7.61
2019-05-30T00:33:37.885Z,7.60
2019-05-30T00:36:07.990Z,7.62
2019-05-30T00:38:38.084Z,7.58
2019-05-30T00:41:08.146Z,7.63
2019-05-30T00:43:38.244Z,7.63
2019-05-30T00:46:08.330Z,7.61
2019-05-30T00:48:38.403Z,7.52
2019-05-30T00:51:08.484Z,7.50
2019-05-30T00:53:38.541Z,7.48
2019-05-30T00:56:08.638Z,7.43
2019-05-30T00:58:38.686Z,7.33
2019-05-30T01:01:09.024Z,7.29
2019-05-30T01:03:39.071Z,7.27
2019-05-30T01:06:09.151Z,7.30
2019-05-30T01:08:39.234Z,7.27
2019-05-30T01:11:09.334Z,7.34
2019-05-30T01:13:39.413Z,7.31
2019-05-30T01:16:09.554Z,7.34
2019-05-30T01:18:39.630Z,7.29
2019-05-30T01:21:09.718Z,7.26
2019-05-30T01:23:43.878Z,7.29
2019-05-30T01:26:16.733Z,7.28
2019-05-30T01:28:46.807Z,7.23
2019-05-30T01:31:16.919Z,7.25
2019-05-30T01:33:47.010Z,7.20
2019-05-30T01:36:17.089Z,7.21
2019-05-30T01:38:47.182Z,7.28
2019-05-30T01:41:17.832Z,7.27
2019-05-30T01:43:48.278Z,7.21
2019-05-30T01:46:18.384Z,7.18
2019-05-30T01:48:48.477Z,7.18
2019-05-30T01:51:18.564Z,7.15
2019-05-30T01:53:48.663Z,7.13
2019-05-30T01:56:18.761Z,7.25
2019-05-30T01:58:48.824Z,7.32
2019-05-30T02:01:25.061Z,7.35
2019-05-30T02:03:50.860Z,7.33
2019-05-30T02:06:20.980Z,7.32
2019-05-30T02:08:54.689Z,7.31
2019-05-30T02:11:24.836Z,7.29
2019-05-30T02:13:54.894Z,7.25
2019-05-30T02:16:24.970Z,7.23
2019-05-30T02:18:55.028Z,7.32
2019-05-30T02:21:25.106Z,7.37
2019-05-30T02:23:55.176Z,7.41
2019-05-30T02:26:25.285Z,7.42
2019-05-30T02:28:55.338Z,7.42
2019-05-30T02:31:38.409Z,7.47
2019-05-30T02:33:57.281Z,7.57
2019-05-30T02:36:27.346Z,7.56
2019-05-30T02:38:57.432Z,7.58
2019-05-30T02:41:28.025Z,7.56
2019-05-30T02:43:58.096Z,7.57
2019-05-30T02:46:28.157Z,7.52
2019-05-30T02:48:59.717Z,7.55
2019-05-30T02:51:30.037Z,7.57
2019-05-30T02:54:01.531Z,7.52
2019-05-30T02:56:31.810Z,7.63
2019-05-30T02:59:03.775Z,7.61
2019-05-30T03:01:33.685Z,7.54
2019-05-30T03:04:04.597Z,7.53
2019-05-30T03:06:35.580Z,7.52
2019-05-30T03:09:09.090Z,7.59
2019-05-30T03:11:38.985Z,7.60
2019-05-30T03:14:16.700Z,7.63
2019-05-30T03:16:43.132Z,7.76
2019-05-30T03:19:13.228Z,7.83
2019-05-30T03:21:43.316Z,7.94
2019-05-30T03:24:14.390Z,8.03
2019-05-30T03:26:44.559Z,8.15
2019-05-30T03:29:14.637Z,8.26
2019-05-30T03:31:46.133Z,8.35
2019-05-30T03:34:26.939Z,8.44
2019-05-30T03:36:49.843Z,8.51
2019-05-30T03:39:19.908Z,8.60
2019-05-30T03:41:49.983Z,8.66
2019-05-30T03:44:20.045Z,8.73
2019-05-30T03:46:53.601Z,8.78
2019-05-30T03:49:27.326Z,8.83
2019-05-30T03:52:00.395Z,8.92
2019-05-30T03:54:31.276Z,9.01
2019-05-30T03:57:15.702Z,9.05
2019-05-30T03:59:56.111Z,9.10
2019-05-30T04:02:57.419Z,9.16
2019-05-30T04:05:26.286Z,9.22
2019-05-30T04:07:58.795Z,9.25
2019-05-30T04:10:33.635Z,9.32
2019-05-30T04:13:41.279Z,9.36
2019-05-30T04:16:13.361Z,9.42
2019-05-30T04:18:43.217Z,9.50
2019-05-30T04:21:16.679Z,9.53
2019-05-30T04:23:46.407Z,9.63
2019-05-30T04:26:17.871Z,9.69
2019-05-30T04:28:48.491Z,9.77
2019-05-30T04:31:19.398Z,9.82
2019-05-30T04:33:49.694Z,9.87
2019-05-30T04:36:19.807Z,9.96
2019-05-30T04:38:49.906Z,10.00
2019-05-30T04:41:20.953Z,10.05
2019-05-30T04:43:51.235Z,10.13
2019-05-30T04:46:22.059Z,10.20
2019-05-30T04:48:52.276Z,10.28
2019-05-30T04:51:22.387Z,10.30
2019-05-30T04:53:52.464Z,10.41
2019-05-30T04:56:22.569Z,10.46
2019-05-30T04:58:52.629Z,10.53
2019-05-30T05:01:22.738Z,10.54
2019-05-30T05:03:52.798Z,10.57
2019-05-30T05:06:22.899Z,10.66
2019-05-30T05:08:52.973Z,10.65
2019-05-30T05:11:25.242Z,10.62
2019-05-30T05:13:54.903Z,10.67
2019-05-30T05:16:34.789Z,10.67
2019-05-30T05:18:56.782Z,10.68
2019-05-30T05:21:26.883Z,10.72
2019-05-30T05:23:56.956Z,10.71
2019-05-30T05:26:27.071Z,10.81
2019-05-30T05:28:57.136Z,10.92
2019-05-30T05:31:27.197Z,10.98
2019-05-30T05:33:57.540Z,11.12
2019-05-30T05:36:27.580Z,11.23
2019-05-30T05:38:57.657Z,11.32
2019-05-30T05:41:28.658Z,11.45
2019-05-30T05:43:58.817Z,11.60
2019-05-30T05:46:28.967Z,11.66
2019-05-30T05:48:59.109Z,11.83
2019-05-30T05:51:29.176Z,11.84
2019-05-30T05:53:59.275Z,11.88
2019-05-30T05:56:29.362Z,11.89
2019-05-30T05:58:59.443Z,11.79
2019-05-30T06:01:30.200Z,11.80
2019-05-30T06:04:12.830Z,11.87
2019-05-30T06:06:32.239Z,11.83
2019-05-30T06:09:02.341Z,11.93
2019-05-30T06:11:32.485Z,11.99
2019-05-30T06:14:02.635Z,12.21
2019-05-30T06:16:32.767Z,12.29
2019-05-30T06:19:02.893Z,12.47
2019-05-30T06:21:33.012Z,12.60
2019-05-30T06:24:03.114Z,12.82
2019-05-30T06:26:33.270Z,12.67
2019-05-30T06:29:03.644Z,12.46
2019-05-30T06:31:33.858Z,12.47
2019-05-30T06:34:05.150Z,12.62
2019-05-30T06:36:35.237Z,12.52
2019-05-30T06:39:08.011Z,12.67
2019-05-30T06:41:38.314Z,12.63
2019-05-30T06:44:08.391Z,12.60
2019-05-30T06:46:38.489Z,12.68
2019-05-30T06:49:08.628Z,12.62
2019-05-30T06:51:38.748Z,12.69
2019-05-30T06:54:08.851Z,12.77
2019-05-30T06:56:38.930Z,13.00
2019-05-30T06:59:09.065Z,13.21
2019-05-30T07:01:39.176Z,13.26
2019-05-30T07:04:09.660Z,13.37
2019-05-30T07:06:40.171Z,13.27
2019-05-30T07:09:10.590Z,13.31
2019-05-30T07:11:40.695Z,13.41
2019-05-30T07:14:10.924Z,13.33
2019-05-30T07:16:41.015Z,13.45
2019-05-30T07:19:11.119Z,13.44
2019-05-30T07:21:41.221Z,13.54
2019-05-30T07:24:11.372Z,13.56
2019-05-30T07:26:41.471Z,13.78
2019-05-30T07:29:11.543Z,13.96
2019-05-30T07:31:41.630Z,13.96
2019-05-30T07:34:11.831Z,14.17
2019-05-30T07:36:41.898Z,14.15
2019-05-30T07:39:12.104Z,14.20
2019-05-30T07:41:42.194Z,14.26
2019-05-30T07:44:12.330Z,14.71
2019-05-30T07:46:42.474Z,14.94
2019-05-30T07:49:12.949Z,15.02
2019-05-30T07:51:43.044Z,14.96
2019-05-30T07:54:13.176Z,14.71
2019-05-30T07:56:43.266Z,15.00
2019-05-30T07:59:13.344Z,15.00
2019-05-30T08:01:43.575Z,14.86
2019-05-30T08:04:13.734Z,14.68
2019-05-30T08:06:43.870Z,14.84
2019-05-30T08:09:13.982Z,15.09
2019-05-30T08:11:44.078Z,15.09
2019-05-30T08:14:14.272Z,15.14
2019-05-30T08:16:48.839Z,15.16
2019-05-30T08:19:19.152Z,15.34
2019-05-30T08:21:49.255Z,15.55
2019-05-30T08:24:22.283Z,15.98
2019-05-30T08:26:52.400Z,16.09
2019-05-30T08:29:22.639Z,16.04
2019-05-30T08:31:52.730Z,16.12
2019-05-30T08:34:22.863Z,15.92
2019-05-30T08:36:52.953Z,15.89
2019-05-30T08:39:23.097Z,15.65
2019-05-30T08:41:53.208Z,15.83
2019-05-30T08:44:23.983Z,15.74
2019-05-30T08:46:57.102Z,15.52
2019-05-30T08:49:27.196Z,15.54
2019-05-30T08:51:57.310Z,15.30
2019-05-30T08:54:27.419Z,15.34
2019-05-30T08:56:57.620Z,15.42
2019-05-30T08:59:27.761Z,14.94
2019-05-30T09:01:57.879Z,14.72
2019-05-30T09:04:29.130Z,14.73
2019-05-30T09:07:01.229Z,14.50
2019-05-30T09:09:31.357Z,14.31
2019-05-30T09:12:01.456Z,14.07
2019-05-30T09:14:31.624Z,13.97
2019-05-30T09:17:01.805Z,13.64
2019-05-30T09:19:32.100Z,13.59
2019-05-30T09:22:02.162Z,13.53
2019-05-30T09:24:32.344Z,13.56
2019-05-30T09:27:02.460Z,13.55
2019-05-30T09:29:32.816Z,13.63
2019-05-30T09:32:03.024Z,13.45
2019-05-30T09:34:33.182Z,13.32
2019-05-30T09:37:06.184Z,13.24
2019-05-30T09:39:36.619Z,13.32
2019-05-30T09:42:06.708Z,13.38
2019-05-30T09:44:36.802Z,13.34
2019-05-30T09:47:08.193Z,13.31
2019-05-30T09:49:40.178Z,13.39
2019-05-30T09:52:10.833Z,13.41
2019-05-30T09:54:44.216Z,13.36
2019-05-30T09:57:14.356Z,13.47
2019-05-30T09:59:45.512Z,13.56
2019-05-30T10:02:16.357Z,13.96
2019-05-30T10:04:46.960Z,14.23
2019-05-30T10:07:18.562Z,14.21
2019-05-30T10:09:48.957Z,14.09
2019-05-30T10:12:19.080Z,14.12
2019-05-30T10:14:50.835Z,14.06
2019-05-30T10:17:21.376Z,14.02
2019-05-30T10:19:52.926Z,14.06
2019-05-30T10:22:23.095Z,14.01
2019-05-30T10:24:54.203Z,14.02
2019-05-30T10:27:24.503Z,13.99
2019-05-30T10:29:54.706Z,14.07
2019-05-30T10:32:24.785Z,13.98
2019-05-30T10:34:56.002Z,13.96
2019-05-30T10:37:26.272Z,13.94
2019-05-30T10:39:58.740Z,13.84
2019-05-30T10:42:28.234Z,13.89
2019-05-30T10:44:58.331Z,13.90
2019-05-30T10:47:28.452Z,13.94
2019-05-30T10:49:58.563Z,14.00
2019-05-30T10:52:28.901Z,14.06
2019-05-30T10:54:59.005Z,14.16
2019-05-30T10:57:29.114Z,14.27
2019-05-30T10:59:59.197Z,14.30
2019-05-30T11:02:29.337Z,14.34
2019-05-30T11:04:59.493Z,14.44
2019-05-30T11:07:54.610Z,14.57
2019-05-30T11:10:21.539Z,14.64
2019-05-30T11:12:58.478Z,14.71
2019-05-30T11:15:23.594Z,14.79
2019-05-30T11:17:54.823Z,14.87
2019-05-30T11:20:25.536Z,15.02
2019-05-30T11:22:56.443Z,15.16
2019-05-30T11:25:26.610Z,15.28
2019-05-30T11:27:56.974Z,15.52
2019-05-30T11:30:27.140Z,15.68
2019-05-30T11:32:57.416Z,15.77
2019-05-30T11:35:27.744Z,16.01
2019-05-30T11:37:59.244Z,16.36
2019-05-30T11:40:29.576Z,16.43
2019-05-30T11:43:00.032Z,16.58
2019-05-30T11:45:30.483Z,16.75
2019-05-30T11:48:01.164Z,16.87
2019-05-30T11:50:32.025Z,17.18
2019-05-30T11:53:02.182Z,17.09
2019-05-30T11:55:32.349Z,17.42
2019-05-30T11:58:02.479Z,17.48
2019-05-30T12:00:32.557Z,17.76
2019-05-30T12:03:02.833Z,17.67
2019-05-30T12:05:33.002Z,17.48
2019-05-30T12:08:03.307Z,17.43
2019-05-30T12:10:34.073Z,17.55
2019-05-30T12:13:04.432Z,17.53
2019-05-30T12:15:34.564Z,17.44
2019-05-30T12:18:05.164Z,17.03
2019-05-30T12:20:35.258Z,16.85
2019-05-30T12:23:05.349Z,16.83
2019-05-30T12:25:35.440Z,16.83
2019-05-30T12:28:05.832Z,16.83
2019-05-30T12:30:36.217Z,16.77
2019-05-30T12:33:06.463Z,16.52
2019-05-30T12:35:36.542Z,16.42
2019-05-30T12:38:06.927Z,16.32
2019-05-30T12:40:37.027Z,16.13
2019-05-30T12:43:07.125Z,15.94
2019-05-30T12:45:37.194Z,15.82
2019-05-30T12:48:07.341Z,15.70
2019-05-30T12:50:37.428Z,15.68
2019-05-30T12:53:07.621Z,15.72
2019-05-30T12:55:37.869Z,15.76
2019-05-30T12:58:08.074Z,15.99
2019-05-30T13:00:39.020Z,15.97
2019-05-30T13:03:09.206Z,16.21
2019-05-30T13:05:39.299Z,16.41
2019-05-30T13:08:20.939Z,16.55
2019-05-30T13:10:41.437Z,16.66
2019-05-30T13:13:11.561Z,16.77
2019-05-30T13:15:41.688Z,16.91
2019-05-30T13:18:29.864Z,16.83
2019-05-30T13:21:04.230Z,16.69
2019-05-30T13:23:34.582Z,16.27
2019-05-30T13:26:05.900Z,16.15
2019-05-30T13:28:36.256Z,16.12
2019-05-30T13:31:07.099Z,16.33
2019-05-30T13:33:38.542Z,16.48
2019-05-30T13:36:08.899Z,16.69
2019-05-30T13:38:38.995Z,16.67
2019-05-30T13:41:09.213Z,16.86
2019-05-30T13:43:39.390Z,16.84
2019-05-30T13:46:09.501Z,16.82
2019-05-30T13:48:41.048Z,16.47
2019-05-30T13:51:11.692Z,16.57
2019-05-30T13:53:42.698Z,16.40
2019-05-30T13:56:13.093Z,16.44
2019-05-30T13:58:43.373Z,16.77
2019-05-30T14:01:14.164Z,16.92
2019-05-30T14:03:44.471Z,16.83
2019-05-30T14:06:14.644Z,16.90
2019-05-30T14:08:44.979Z,16.97
2019-05-30T14:11:15.443Z,16.81
2019-05-30T14:13:45.568Z,16.77
2019-05-30T14:16:15.633Z,17.00
2019-05-30T14:18:45.888Z,17.20
2019-05-30T14:21:16.327Z,17.29
2019-05-30T14:23:46.562Z,17.19
2019-05-30T14:26:16.767Z,17.36
2019-05-30T14:28:46.925Z,17.30
2019-05-30T14:31:17.024Z,17.42
2019-05-30T14:33:47.118Z,17.37
2019-05-30T14:36:17.263Z,17.46
2019-05-30T14:38:57.976Z,17.37
2019-05-30T14:41:19.465Z,17.45
2019-05-30T14:43:49.580Z,17.39
2019-05-30T14:46:19.827Z,17.48
2019-05-30T14:48:50.098Z,17.37
2019-05-30T14:51:20.298Z,17.36
2019-05-30T14:53:50.404Z,17.24
2019-05-30T14:56:20.535Z,17.04
2019-05-30T14:58:50.706Z,16.95
2019-05-30T15:01:20.828Z,16.90
2019-05-30T15:03:51.028Z,16.87
2019-05-30T15:06:21.212Z,16.91
2019-05-30T15:08:51.508Z,17.00
2019-05-30T15:11:22.018Z,17.23
2019-05-30T15:13:52.316Z,17.40
2019-05-30T15:16:22.600Z,17.48
2019-05-30T15:18:52.942Z,17.50
2019-05-30T15:21:23.166Z,17.28
2019-05-30T15:23:53.298Z,17.32
2019-05-30T15:26:23.411Z,17.44
2019-05-30T15:28:54.812Z,17.44
2019-05-30T15:31:24.948Z,17.43
2019-05-30T15:33:55.098Z,17.61
2019-05-30T15:36:25.247Z,17.67
2019-05-30T15:38:55.372Z,17.77
2019-05-30T15:41:25.465Z,17.87
2019-05-30T15:43:55.628Z,18.03
2019-05-30T15:46:25.847Z,18.05
2019-05-30T15:48:56.046Z,17.88
2019-05-30T15:51:26.557Z,17.77
2019-05-30T15:54:07.107Z,18.08
2019-05-30T16:00:47.822Z,18.00
2019-05-30T16:03:20.905Z,18.41
2019-05-30T16:05:53.783Z,18.68
2019-05-30T16:08:24.062Z,18.79
2019-05-30T16:10:54.246Z,18.49
2019-05-30T16:13:24.465Z,18.59
2019-05-30T16:15:54.897Z,18.65
2019-05-30T16:18:26.587Z,18.73
2019-05-30T16:20:56.714Z,18.83
2019-05-30T16:23:27.335Z,19.02
2019-05-30T16:25:57.842Z,19.09
2019-05-30T16:28:28.138Z,19.04
2019-05-30T16:30:58.321Z,18.77
2019-05-30T16:33:28.419Z,18.37
2019-05-30T16:35:58.540Z,18.43
2019-05-30T16:38:28.759Z,18.45
2019-05-30T16:40:58.882Z,18.47
2019-05-30T16:43:28.984Z,18.27
2019-05-30T16:45:59.088Z,18.25
2019-05-30T16:48:36.746Z,18.02
2019-05-30T16:51:06.818Z,17.93
2019-05-30T16:53:36.926Z,17.87
2019-05-30T16:56:07.056Z,17.93
2019-05-30T16:58:37.268Z,17.94
2019-05-30T17:01:07.407Z,17.87
2019-05-30T17:03:37.726Z,17.79
2019-05-30T17:06:07.810Z,17.70
2019-05-30T17:08:37.968Z,17.62
2019-05-30T17:11:08.292Z,17.62
2019-05-30T17:13:57.738Z,17.53
2019-05-30T17:16:28.079Z,17.52
2019-05-30T17:18:58.299Z,17.46
2019-05-30T17:21:28.550Z,17.42
2019-05-30T17:23:58.698Z,17.39
2019-05-30T17:26:28.829Z,17.37
2019-05-30T17:28:58.955Z,17.34
2019-05-30T17:31:29.052Z,17.34
2019-05-30T17:33:59.173Z,17.28
2019-05-30T17:36:29.277Z,17.24
2019-05-30T17:38:59.444Z,17.19
2019-05-30T17:41:29.895Z,17.13
2019-05-30T17:44:00.063Z,17.16
2019-05-30T17:46:30.281Z,17.16
2019-05-30T17:49:00.418Z,17.17
2019-05-30T17:51:30.645Z,17.17
2019-05-30T17:54:00.793Z,17.14
2019-05-30T17:56:30.892Z,17.08
2019-05-30T17:59:01.037Z,17.06
2019-05-30T18:01:31.156Z,17.04
2019-05-30T18:04:01.339Z,17.00
2019-05-30T18:06:31.457Z,16.90
2019-05-30T18:09:01.577Z,16.88
2019-05-30T18:11:31.682Z,16.84
2019-05-30T18:14:01.877Z,16.78
2019-05-30T18:16:31.990Z,16.69
2019-05-30T18:19:02.092Z,16.69
2019-05-30T18:21:32.454Z,16.65
2019-05-30T18:24:02.616Z,16.63
2019-05-30T18:26:32.816Z,16.63
2019-05-30T18:29:02.920Z,16.61
2019-05-30T18:31:33.042Z,16.59
2019-05-30T18:34:03.216Z,16.57
2019-05-30T18:36:33.572Z,16.59
2019-05-30T18:39:06.164Z,16.60
2019-05-30T18:41:36.321Z,16.60
2019-05-30T18:44:06.550Z,16.64
2019-05-30T18:46:38.689Z,16.63
2019-05-30T18:49:08.643Z,16.62
2019-05-30T18:51:38.895Z,16.59
2019-05-30T18:54:09.012Z,16.57
2019-05-30T18:56:39.159Z,16.57
2019-05-30T18:59:09.251Z,16.50
2019-05-30T19:01:40.561Z,16.23
2019-05-30T19:04:10.721Z,16.01
2019-05-30T19:06:40.841Z,15.82
2019-05-30T19:09:11.014Z,15.67
2019-05-30T19:11:41.178Z,15.59
2019-05-30T19:14:11.292Z,15.58
2019-05-30T19:16:41.431Z,15.53
2019-05-30T19:19:11.580Z,15.49
2019-05-30T19:21:41.693Z,15.48
2019-05-30T19:24:11.807Z,15.46
2019-05-30T19:26:41.940Z,15.42
2019-05-30T19:29:12.165Z,15.37
2019-05-30T19:31:42.364Z,15.31
2019-05-30T19:34:12.489Z,15.25
2019-05-30T19:36:43.142Z,15.22
2019-05-30T19:39:13.513Z,15.15
2019-05-30T19:41:56.386Z,15.13
2019-05-30T19:44:16.272Z,15.14
2019-05-30T19:46:46.557Z,15.11
2019-05-30T19:49:16.700Z,15.09
2019-05-30T19:51:46.939Z,14.98
2019-05-30T19:54:17.122Z,14.99
2019-05-30T19:56:47.252Z,14.98
2019-05-30T19:59:17.364Z,14.97
2019-05-30T20:01:47.497Z,14.96
2019-05-30T20:04:17.680Z,14.96
2019-05-30T20:06:47.903Z,14.95
2019-05-30T20:09:18.019Z,14.94
2019-05-30T20:12:02.566Z,14.92
2019-05-30T20:14:22.553Z,14.90
2019-05-30T20:16:52.786Z,14.90
2019-05-30T20:19:22.961Z,14.87
2019-05-30T20:21:53.180Z,14.88
2019-05-30T20:24:23.314Z,14.88
2019-05-30T20:26:53.483Z,14.90
2019-05-30T20:29:23.608Z,14.90
2019-05-30T20:31:53.830Z,14.89
2019-05-30T20:34:23.953Z,14.87
2019-05-30T20:36:54.192Z,14.85
2019-05-30T20:39:24.582Z,14.85
2019-05-30T20:41:54.674Z,14.83
2019-05-30T20:44:24.760Z,14.77
2019-05-30T20:46:54.857Z,14.74
2019-05-30T20:49:24.987Z,14.68
2019-05-30T20:51:55.085Z,14.64
2019-05-30T20:54:25.516Z,14.58
2019-05-30T20:56:55.637Z,14.52
2019-05-30T20:59:25.782Z,14.42
2019-05-30T21:01:55.904Z,14.41
2019-05-30T21:04:26.084Z,14.38
2019-05-30T21:06:57.260Z,14.38
2019-05-30T21:09:29.463Z,14.39
2019-05-30T21:12:02.514Z,14.40
2019-05-30T21:14:35.486Z,14.41
2019-05-30T21:17:05.986Z,14.40
2019-05-30T21:19:36.185Z,14.38
2019-05-30T21:22:06.463Z,14.31
2019-05-30T21:24:36.619Z,14.28
2019-05-30T21:27:06.703Z,14.19
2019-05-30T21:29:36.997Z,14.16
2019-05-30T21:32:07.192Z,14.13
2019-05-30T21:34:37.714Z,14.08
2019-05-30T21:37:08.059Z,14.05
2019-05-30T21:39:38.195Z,14.02
2019-05-30T21:42:08.277Z,14.01
2019-05-30T21:44:42.758Z,13.96
2019-05-30T21:47:13.153Z,13.92
2019-05-30T21:49:43.302Z,13.90
2019-05-30T21:52:13.421Z,13.87
2019-05-30T21:54:43.846Z,13.88
2019-05-30T21:57:14.078Z,13.83
2019-05-30T21:59:44.357Z,13.83
2019-05-30T22:02:16.100Z,13.83
2019-05-30T22:04:48.685Z,13.86
2019-05-30T22:07:18.834Z,13.88
2019-05-30T22:09:51.545Z,13.88
2019-05-30T22:12:24.205Z,13.89
2019-05-30T22:14:54.331Z,13.87
2019-05-30T22:17:24.579Z,13.84
2019-05-30T22:19:55.903Z,13.84
2019-05-30T22:22:26.018Z,13.85
2019-05-30T22:24:56.107Z,13.83
2019-05-30T22:27:26.268Z,13.84
2019-05-30T22:29:57.758Z,13.83
2019-05-30T22:32:27.850Z,13.84
2019-05-30T22:34:58.080Z,13.85
2019-05-30T22:37:28.178Z,13.80
2019-05-30T22:39:58.284Z,13.78
2019-05-30T22:42:28.409Z,13.79
2019-05-30T22:44:58.565Z,13.78
2019-05-30T22:47:28.708Z,13.77
2019-05-30T22:49:58.809Z,13.74
2019-05-30T22:52:28.903Z,13.72
2019-05-30T22:54:58.974Z,13.77
2019-05-30T22:57:29.074Z,13.78
2019-05-30T22:59:59.143Z,13.76
2019-05-30T23:02:29.657Z,13.83
2019-05-30T23:04:59.758Z,13.84
2019-05-30T23:07:29.861Z,13.96
2019-05-30T23:09:59.941Z,14.07
2019-05-30T23:12:30.044Z,14.10
2019-05-30T23:15:00.121Z,14.15
2019-05-30T23:17:30.230Z,14.11
2019-05-30T23:20:00.290Z,14.07
2019-05-30T23:22:30.386Z,14.21
2019-05-30T23:25:00.454Z,14.21
2019-05-30T23:27:30.559Z,14.20
2019-05-30T23:30:00.630Z,14.28
2019-05-30T23:32:30.713Z,14.22
2019-05-30T23:35:00.838Z,14.17
2019-05-30T23:37:30.958Z,14.13
2019-05-30T23:40:01.035Z,14.15
2019-05-30T23:42:31.165Z,14.16
2019-05-30T23:45:02.233Z,14.12
2019-05-30T23:47:32.419Z,14.13
2019-05-30T23:50:02.593Z,14.07
2019-05-30T23:52:32.673Z,14.05
2019-05-30T23:55:02.780Z,14.09
2019-05-30T23:57:32.871Z,14.15
